This is the latest recevied weather packets stored in our database for station/object HP3ICC-14. If no packets are shown the sender has not sent any weather packets the latest 10 day(s).
| Time | Temp. | Humidity | Pressure | Rain* | Wind** | Luminosity | Snow |
|---|---|---|---|---|---|---|---|
| 1788136874 | 27.78° C | 74% | 1010 hPa | 0 mm | - | - | - |
| 1788136814 | 27.78° C | 74% | 1010 hPa | 0 mm | - | - | - |
| 1788135673 | 22.22° C | 69% | 1009 hPa | 0 mm | - | - | - |
| 1788135613 | 22.22° C | 69% | 1009 hPa | 0 mm | - | - | - |
| 1788134473 | 22.78° C | 69% | 1009 hPa | 0 mm | - | - | - |
| 1788134413 | 22.78° C | 69% | 1009 hPa | 0 mm | - | - | - |
| 1788133273 | 23.33° C | 69% | 1009 hPa | 0 mm | - | - | - |
| 1788133213 | 23.33° C | 69% | 1009 hPa | 0 mm | - | - | - |
| 1788132012 | 23.89° C | 69% | 1008 hPa | 0 mm | - | - | - |
| 1788130872 | 24.44° C | 69% | 1008 hPa | 0.76 mm | - | - | - |
| 1788130812 | 24.44° C | 69% | 1008 hPa | 0.76 mm | - | - | - |
| 1788129672 | 25° C | 69% | 1008 hPa | 1.02 mm | - | - | - |
| 1788128472 | 25.56° C | 69% | 1008 hPa | 1.27 mm | - | - | - |
| 1788127271 | 26.11° C | 69% | 1008 hPa | 2.03 mm | - | - | - |
| 1788127211 | 26.11° C | 69% | 1008 hPa | 2.03 mm | - | - | - |
| 1788126011 | 26.67° C | 69% | 1008 hPa | 2.29 mm | - | - | - |
| 1788124871 | 27.22° C | 69% | 1008 hPa | 2.29 mm | - | - | - |
| 1788124811 | 27.22° C | 69% | 1008 hPa | 2.29 mm | - | - | - |
| 1788123671 | 27.78° C | 69% | 1008 hPa | 3.3 mm | - | - | - |
| 1788123611 | 27.78° C | 69% | 1008 hPa | 3.3 mm | - | - | - |
| 1788122470 | 28.33° C | 69% | 1008 hPa | 3.81 mm | - | - | - |
| 1788122410 | 28.33° C | 69% | 1008 hPa | 3.81 mm | - | - | - |
| 1788121270 | 28.89° C | 69% | 1008 hPa | 3.81 mm | - | - | - |
| 1788121210 | 28.89° C | 69% | 1008 hPa | 3.81 mm | - | - | - |
| 1788120070 | 25.56° C | 73% | 1008 hPa | 0 mm | - | - | - |
* Rain latest hour (hover to see other rain measurements)
** Current wind speed in m/s (hover to see current wind gust speed)